createdAt,value
2022-10-07T00:00:02.907Z,1.48
2022-10-07T00:05:09.971Z,1.67
2022-10-07T00:10:14.051Z,1.60
2022-10-07T00:15:18.372Z,1.80
2022-10-07T00:20:23.691Z,2.22
2022-10-07T00:25:27.626Z,1.65
2022-10-07T00:30:33.126Z,1.52
2022-10-07T00:35:38.527Z,1.67
2022-10-07T00:40:42.992Z,2.00
2022-10-07T00:45:47.026Z,1.92
2022-10-07T00:50:55.406Z,1.70
2022-10-07T00:56:03.054Z,1.48
2022-10-07T01:01:07.469Z,1.13
2022-10-07T01:06:13.144Z,1.42
2022-10-07T01:11:29.963Z,1.40
2022-10-07T01:16:42.067Z,0.80
2022-10-07T01:22:00.873Z,1.60
2022-10-07T01:27:11.785Z,1.85
2022-10-07T01:32:23.365Z,2.08
2022-10-07T01:37:32.141Z,1.60
2022-10-07T01:42:38.915Z,1.50
2022-10-07T01:47:44.416Z,2.03
2022-10-07T01:53:12.960Z,1.73
2022-10-07T01:58:33.780Z,1.33
2022-10-07T02:04:04.815Z,1.27
2022-10-07T02:09:22.032Z,1.40
2022-10-07T02:14:32.491Z,3.50
2022-10-07T02:19:43.758Z,3.22
2022-10-07T02:24:50.977Z,1.90
2022-10-07T02:30:02.769Z,1.65
2022-10-07T02:35:16.532Z,1.95
2022-10-07T02:40:23.218Z,1.88
2022-10-07T02:45:38.105Z,1.98
2022-10-07T02:50:49.088Z,2.22
2022-10-07T02:55:56.898Z,3.15
2022-10-07T03:01:04.286Z,2.97
2022-10-07T03:06:10.161Z,2.70
2022-10-07T03:11:14.472Z,3.88
2022-10-07T03:16:20.575Z,2.30
2022-10-07T03:21:25.206Z,2.15
2022-10-07T03:26:32.276Z,1.27
2022-10-07T03:31:37.850Z,1.85
2022-10-07T03:36:42.861Z,1.15
2022-10-07T03:41:49.051Z,1.40
2022-10-07T03:46:55.033Z,1.60
2022-10-07T03:52:02.993Z,3.42
2022-10-07T03:57:28.486Z,2.22
2022-10-07T04:02:35.831Z,2.50
2022-10-07T04:07:40.821Z,3.38
2022-10-07T04:12:45.203Z,4.68
2022-10-07T04:17:58.567Z,3.90
2022-10-07T04:23:03.810Z,3.03
2022-10-07T04:28:17.139Z,1.95
2022-10-07T04:33:26.684Z,1.40
2022-10-07T04:38:33.716Z,1.40
2022-10-07T04:43:39.516Z,2.33
2022-10-07T04:48:48.924Z,2.67
2022-10-07T04:53:57.759Z,3.50
2022-10-07T04:59:14.488Z,3.88
2022-10-07T05:04:21.381Z,2.30
2022-10-07T05:09:26.738Z,2.08
2022-10-07T05:14:33.901Z,2.38
2022-10-07T05:19:40.551Z,6.50
2022-10-07T05:24:45.304Z,6.85
2022-10-07T05:29:49.546Z,6.07
2022-10-07T05:34:56.151Z,8.10
2022-10-07T05:40:00.333Z,5.70
2022-10-07T05:45:05.697Z,4.78
2022-10-07T05:50:12.858Z,3.50
2022-10-07T05:55:18.162Z,4.22
2022-10-07T06:00:23.252Z,2.72
2022-10-07T06:05:31.729Z,2.65
2022-10-07T06:10:53.549Z,7.80
2022-10-07T06:16:05.265Z,18.92
2022-10-07T06:21:11.983Z,9.00
2022-10-07T06:26:16.094Z,5.97
2022-10-07T06:31:25.428Z,4.78
2022-10-07T06:36:36.526Z,3.45
2022-10-07T06:41:41.434Z,3.15
2022-10-07T06:47:11.478Z,9.07
2022-10-07T06:52:20.484Z,6.78
2022-10-07T06:57:44.733Z,4.95
2022-10-07T07:02:49.427Z,2.78
2022-10-07T07:07:57.713Z,1.45
2022-10-07T07:18:08.138Z,1.88
2022-10-07T07:23:14.149Z,1.42
2022-10-07T07:28:19.444Z,1.80
2022-10-07T07:33:23.568Z,1.50
2022-10-07T07:38:29.474Z,1.52
2022-10-07T07:43:34.505Z,1.70
2022-10-07T07:48:38.557Z,1.45
2022-10-07T07:53:44.688Z,1.85
2022-10-07T07:58:51.372Z,1.33
2022-10-07T08:03:56.572Z,1.42
2022-10-07T08:09:02.289Z,1.13
2022-10-07T08:14:08.127Z,1.70
2022-10-07T08:19:13.480Z,1.20
2022-10-07T08:24:19.275Z,0.98
2022-10-07T08:29:23.630Z,1.35
2022-10-07T08:34:28.301Z,1.30
2022-10-07T08:39:34.670Z,1.33
2022-10-07T08:44:41.110Z,1.15
2022-10-07T08:50:01.272Z,1.90
2022-10-07T08:55:18.765Z,1.67
2022-10-07T09:00:24.990Z,1.02
2022-10-07T09:05:35.007Z,1.33
2022-10-07T09:10:45.726Z,1.23
2022-10-07T09:15:54.847Z,0.75
2022-10-07T09:20:59.322Z,1.10
2022-10-07T09:26:10.573Z,1.20
2022-10-07T09:31:16.444Z,1.30
2022-10-07T09:36:20.370Z,1.17
2022-10-07T09:41:31.968Z,1.38
2022-10-07T09:46:43.286Z,1.10
2022-10-07T09:52:00.285Z,1.05
2022-10-07T09:57:07.450Z,0.60
2022-10-07T10:02:22.095Z,1.42
2022-10-07T10:07:28.629Z,1.00
2022-10-07T10:12:40.732Z,1.40
2022-10-07T10:17:46.760Z,1.00
2022-10-07T10:22:51.023Z,1.00
2022-10-07T10:28:05.446Z,1.13
2022-10-07T10:33:17.324Z,1.10
2022-10-07T10:38:36.673Z,1.10
2022-10-07T10:44:13.978Z,1.10
2022-10-07T10:49:26.398Z,0.88
2022-10-07T10:54:43.374Z,1.33
2022-10-07T11:00:13.753Z,1.33
2022-10-07T11:05:23.022Z,1.30
2022-10-07T11:10:31.788Z,1.20
2022-10-07T11:15:42.481Z,0.90
2022-10-07T11:20:48.499Z,0.90
2022-10-07T11:25:58.564Z,1.17
2022-10-07T11:31:10.164Z,0.80
2022-10-07T11:36:17.366Z,1.10
2022-10-07T11:41:27.032Z,1.60
2022-10-07T11:46:36.550Z,1.08
2022-10-07T11:51:46.774Z,0.98
2022-10-07T11:56:53.478Z,0.80
2022-10-07T12:01:59.001Z,1.10
2022-10-07T12:07:38.386Z,0.80
2022-10-07T12:18:30.456Z,1.13
2022-10-07T12:23:47.478Z,1.00
2022-10-07T12:28:58.535Z,0.88
2022-10-07T12:34:11.490Z,0.80
2022-10-07T12:39:36.965Z,0.93
2022-10-07T12:44:50.984Z,1.52
2022-10-07T12:50:00.501Z,1.00
2022-10-07T12:55:09.771Z,1.55
2022-10-07T13:00:17.015Z,0.75
2022-10-07T13:06:11.706Z,0.50
2022-10-07T13:11:51.643Z,1.40
2022-10-07T13:17:08.183Z,0.90
2022-10-07T13:22:15.849Z,1.00
2022-10-07T13:27:24.987Z,1.20
2022-10-07T13:32:34.910Z,1.10
2022-10-07T13:37:39.777Z,1.15
2022-10-07T13:42:44.308Z,0.80
2022-10-07T13:47:50.543Z,1.13
2022-10-07T13:52:56.417Z,1.10
2022-10-07T13:58:04.574Z,1.30
2022-10-07T14:03:15.897Z,0.77
2022-10-07T14:08:21.692Z,1.35
2022-10-07T14:13:26.467Z,1.10
2022-10-07T14:18:31.977Z,1.20
2022-10-07T14:23:38.165Z,1.42
2022-10-07T14:28:43.373Z,2.13
2022-10-07T14:34:19.442Z,1.98
2022-10-07T14:39:24.965Z,3.33
2022-10-07T14:44:30.140Z,1.85
2022-10-07T14:49:36.002Z,2.08
2022-10-07T14:54:41.405Z,1.30
2022-10-07T14:59:45.539Z,1.13
2022-10-07T15:04:50.989Z,4.10
2022-10-07T15:09:55.124Z,2.85
2022-10-07T15:14:59.104Z,1.52
2022-10-07T15:20:06.068Z,1.88
2022-10-07T15:25:11.595Z,1.45
2022-10-07T15:30:15.967Z,1.52
2022-10-07T15:35:21.313Z,1.70
2022-10-07T15:40:25.713Z,1.90
2022-10-07T15:45:29.670Z,2.30
2022-10-07T15:50:39.280Z,2.45
2022-10-07T15:55:51.115Z,2.40
2022-10-07T16:00:59.891Z,2.47
2022-10-07T16:06:06.341Z,4.03
2022-10-07T16:11:12.260Z,5.07
2022-10-07T16:16:20.356Z,3.80
2022-10-07T16:21:29.269Z,4.50
2022-10-07T16:26:35.965Z,5.20
2022-10-07T16:31:43.538Z,4.85
2022-10-07T16:36:50.510Z,3.67
2022-10-07T16:41:56.521Z,5.97
2022-10-07T16:47:01.349Z,8.70
2022-10-07T16:52:07.342Z,7.45
2022-10-07T16:57:12.018Z,5.20
2022-10-07T17:02:16.280Z,3.97
2022-10-07T17:07:21.961Z,14.55
2022-10-07T17:12:26.706Z,9.27
2022-10-07T17:17:30.969Z,7.05
2022-10-07T17:22:36.682Z,5.00
2022-10-07T17:27:41.253Z,5.95
2022-10-07T17:32:45.742Z,8.40
2022-10-07T17:37:53.962Z,5.53
2022-10-07T17:43:02.352Z,10.77
2022-10-07T17:48:07.620Z,8.82
2022-10-07T17:53:13.462Z,5.47
2022-10-07T17:58:19.429Z,3.30
2022-10-07T18:03:24.837Z,2.92
2022-10-07T18:08:30.902Z,6.55
2022-10-07T18:13:54.931Z,5.65
2022-10-07T18:18:59.215Z,3.58
2022-10-07T18:24:09.467Z,5.70
2022-10-07T18:29:13.853Z,8.07
2022-10-07T18:34:21.196Z,5.95
2022-10-07T18:39:29.444Z,5.35
2022-10-07T18:44:34.524Z,7.43
2022-10-07T18:49:39.066Z,8.35
2022-10-07T18:54:45.431Z,7.72
2022-10-07T18:59:50.368Z,4.03
2022-10-07T19:04:55.071Z,12.93
2022-10-07T19:10:01.264Z,7.10
2022-10-07T19:15:05.913Z,6.63
2022-10-07T19:20:11.252Z,6.13
2022-10-07T19:25:34.578Z,5.93
2022-10-07T19:30:42.132Z,5.65
2022-10-07T19:35:47.244Z,2.20
2022-10-07T19:40:55.087Z,3.85
2022-10-07T19:46:02.872Z,3.88
2022-10-07T19:51:10.257Z,4.75
2022-10-07T19:56:17.802Z,5.57
2022-10-07T20:01:28.758Z,5.40
2022-10-07T20:06:34.172Z,6.10
2022-10-07T20:11:40.137Z,5.78
2022-10-07T20:16:44.904Z,6.25
2022-10-07T20:21:49.629Z,5.40
2022-10-07T20:26:55.484Z,5.68
2022-10-07T20:31:59.603Z,8.52
2022-10-07T20:37:03.862Z,5.68
2022-10-07T20:42:25.823Z,4.50
2022-10-07T20:47:31.703Z,2.45
2022-10-07T20:52:37.659Z,12.73
2022-10-07T20:57:43.774Z,5.80
2022-10-07T21:02:48.382Z,3.17
2022-10-07T21:07:54.791Z,4.05
2022-10-07T21:13:02.050Z,4.18
2022-10-07T21:18:06.864Z,2.97
2022-10-07T21:23:10.952Z,6.22
2022-10-07T21:28:16.758Z,9.95
2022-10-07T21:33:21.194Z,7.05
2022-10-07T21:38:27.824Z,21.25
2022-10-07T21:43:33.187Z,16.67
2022-10-07T21:48:37.282Z,7.43
2022-10-07T21:53:41.705Z,11.13
2022-10-07T21:58:49.354Z,10.57
2022-10-07T22:03:56.858Z,8.98
2022-10-07T22:09:01.450Z,6.75
2022-10-07T22:14:12.121Z,5.15
2022-10-07T22:19:17.505Z,6.40
2022-10-07T22:24:23.641Z,5.10
2022-10-07T22:29:29.729Z,5.20
2022-10-07T22:34:47.495Z,3.63
2022-10-07T22:39:51.498Z,3.58
2022-10-07T22:44:57.203Z,3.08
2022-10-07T22:50:02.789Z,3.30
2022-10-07T22:55:08.530Z,3.80
2022-10-07T23:00:16.302Z,2.92
2022-10-07T23:05:20.368Z,3.33
2022-10-07T23:10:24.368Z,3.78
2022-10-07T23:15:30.535Z,3.38
2022-10-07T23:20:34.519Z,3.20
2022-10-07T23:25:43.434Z,3.10
2022-10-07T23:30:49.178Z,3.15
2022-10-07T23:35:57.159Z,2.97
2022-10-07T23:41:01.140Z,3.40
2022-10-07T23:46:09.980Z,2.67
2022-10-07T23:51:16.287Z,2.90
2022-10-07T23:56:20.354Z,2.78
